Capitol Logistics 457


KMSP
Minneapolis-St Paul International Airport
Minneapolis, Minnesota, US
KEWR
Newark Liberty International Airport
Newark, New Jersey, US

Activity Log

Date Flight Route Aircraft Duration
04/12/2020 CPX457 KMSP NICKL DLL BAE ADALE VIO HASTE ALPHE CRL KEEHO DORET ZORBO SLT KEWR B738 2h 31m
04/10/2020 CPX457 WLSTN7 GRB KEEHO J584 SLT FQM3 B738 2h 25m
10/28/2019 CPX457 WLSTN7 GRB KEEHO J584 SLT FQM3 B738 3h 00m
07/19/2019 CPX457 ZMBRO7 ODI KG78K KG72M EVOTE NELLS KEEHO J584 SLT FQM3 B738 2h 29m

Route Details

Aircraft Information
Primary: Boeing 737-800BCF
Backup: Not Available
Route Data
Distance: 875nm
Sched. Duration: 2h 39m
Avg. Duration: 2h 46m (+7m)
Times Flown: 4
Recm'd Route: WLSTN7 GRB KEEHO J584 SLT FQM3
Planned Altitude: 35,000ft
Origin Wx: KMSP 021453Z 16005KT 10SM FEW020 28/22 A3007 RMK AO2 SLP176 T02830217 51005
Dest. Wx: KEWR 021451Z VRB04KT 10SM FEW060 FEW100 FEW250 29/17 A2984 RMK AO2 SLP105 T02940167 58005 $
Notes:

Financial History
Total Freight: 53,328lbs
Average Load: 13,332lbs/flt
Fuel Used: 48,733lbs
Avg. Fuel Used: 12,183lbs/flt
Fuel Expense: $58,967
Avg. Fuel Expense: $14,742
Avg. Fuel Cost: $1.21/lbs
Total Gross Income: $72,019
Pilot Pay: $626
Total Expenses: $7,986
Total Revenue: $3,333
Average Revenue: $18,004.80